createdAt,value
2017-07-21T00:00:47.395Z,0
2017-07-21T00:02:02.867Z,0
2017-07-21T00:03:18.293Z,0
2017-07-21T00:04:34.312Z,0
2017-07-21T00:06:03.318Z,0
2017-07-21T00:07:17.354Z,0
2017-07-21T00:08:32.946Z,0
2017-07-21T00:09:48.397Z,0
2017-07-21T00:11:04.041Z,0
2017-07-21T00:12:18.594Z,0
2017-07-21T00:13:34.060Z,0
2017-07-21T00:14:49.774Z,0
2017-07-21T00:16:05.367Z,0
2017-07-21T00:17:20.869Z,0
2017-07-21T00:18:36.572Z,0
2017-07-21T00:19:50.980Z,0
2017-07-21T00:21:06.463Z,0
2017-07-21T00:22:21.958Z,0
2017-07-21T00:23:37.402Z,0
2017-07-21T00:24:53.196Z,0
2017-07-21T00:26:08.626Z,0
2017-07-21T00:27:24.189Z,0
2017-07-21T00:28:39.688Z,0
2017-07-21T00:29:55.384Z,0
2017-07-21T00:31:10.861Z,0
2017-07-21T00:32:26.037Z,0
2017-07-21T00:33:41.696Z,0
2017-07-21T00:34:57.376Z,0
2017-07-21T00:36:13.055Z,0
2017-07-21T00:37:28.664Z,0
2017-07-21T00:38:44.132Z,0
2017-07-21T00:39:58.522Z,0
2017-07-21T00:41:13.957Z,0
2017-07-21T00:42:29.510Z,0
2017-07-21T00:43:43.694Z,0
2017-07-21T00:44:59.870Z,0
2017-07-21T00:46:15.357Z,0
2017-07-21T00:47:30.824Z,0
2017-07-21T00:48:44.969Z,0
2017-07-21T00:50:00.675Z,0
2017-07-21T00:51:16.175Z,0
2017-07-21T00:52:31.587Z,0
2017-07-21T00:53:47.044Z,0
2017-07-21T00:55:02.758Z,0
2017-07-21T00:56:18.271Z,0
2017-07-21T00:57:33.332Z,0
2017-07-21T00:58:48.797Z,0
2017-07-21T01:00:04.494Z,0
2017-07-21T01:01:19.991Z,0
2017-07-21T01:02:35.440Z,0
2017-07-21T01:03:49.565Z,0
2017-07-21T01:05:05.281Z,0
2017-07-21T01:06:20.783Z,0
2017-07-21T01:07:36.163Z,0
2017-07-21T01:08:50.362Z,0
2017-07-21T01:10:05.772Z,0
2017-07-21T01:11:21.201Z,0
2017-07-21T01:12:36.637Z,0
2017-07-21T01:13:52.095Z,0
2017-07-21T01:15:07.837Z,0
2017-07-21T01:16:23.309Z,0
2017-07-21T01:17:38.755Z,0
2017-07-21T01:18:54.247Z,0
2017-07-21T01:20:08.619Z,0
2017-07-21T01:21:24.316Z,0
2017-07-21T01:22:39.774Z,0
2017-07-21T01:23:55.237Z,0
2017-07-21T01:25:10.950Z,0
2017-07-21T01:26:26.380Z,0
2017-07-21T01:27:40.551Z,0
2017-07-21T01:28:56.034Z,0
2017-07-21T01:30:11.791Z,0
2017-07-21T01:31:27.300Z,0
2017-07-21T01:32:42.325Z,0
2017-07-21T01:33:57.733Z,0
2017-07-21T01:35:13.496Z,0
2017-07-21T01:36:28.998Z,0
2017-07-21T01:37:44.449Z,0
2017-07-21T01:38:59.911Z,0
2017-07-21T01:40:15.763Z,0
2017-07-21T01:41:31.405Z,0
2017-07-21T01:42:46.854Z,0
2017-07-21T01:44:02.282Z,0
2017-07-21T01:45:17.998Z,0
2017-07-21T01:46:33.460Z,0
2017-07-21T01:47:48.853Z,0
2017-07-21T01:49:04.298Z,0
2017-07-21T01:50:20.021Z,0
2017-07-21T01:51:35.523Z,0
2017-07-21T01:52:50.970Z,0
2017-07-21T01:54:06.578Z,0
2017-07-21T01:55:18.354Z,0
2017-07-21T01:56:31.188Z,0
2017-07-21T01:57:46.729Z,0
2017-07-21T01:59:02.331Z,0
2017-07-21T02:00:18.005Z,0
2017-07-21T02:01:32.283Z,0
2017-07-21T02:02:47.717Z,0
2017-07-21T02:04:03.188Z,0
2017-07-21T02:05:17.568Z,0
2017-07-21T02:06:33.065Z,0
2017-07-21T02:07:48.497Z,0
2017-07-21T02:09:04.193Z,0
2017-07-21T02:10:20.053Z,0
2017-07-21T02:11:35.156Z,0
2017-07-21T02:12:50.587Z,0
2017-07-21T02:14:06.076Z,0
2017-07-21T02:15:21.815Z,0
2017-07-21T02:16:35.557Z,0
2017-07-21T02:17:50.997Z,0
2017-07-21T02:19:06.448Z,0
2017-07-21T02:20:22.747Z,0
2017-07-21T02:21:38.140Z,0
2017-07-21T02:22:53.996Z,0
2017-07-21T02:24:09.623Z,0
2017-07-21T02:25:25.349Z,0
2017-07-21T02:26:40.792Z,0
2017-07-21T02:27:56.199Z,0
2017-07-21T02:29:10.368Z,0
2017-07-21T02:30:26.038Z,0
2017-07-21T02:31:41.526Z,0
2017-07-21T02:32:56.643Z,0
2017-07-21T02:34:12.123Z,0
2017-07-21T02:35:27.974Z,0
2017-07-21T02:36:43.663Z,0
2017-07-21T02:37:58.723Z,0
2017-07-21T02:39:14.262Z,0
2017-07-21T02:40:28.684Z,0
2017-07-21T02:41:42.931Z,4
2017-07-21T02:42:58.370Z,4
2017-07-21T02:44:13.800Z,0
2017-07-21T02:45:27.947Z,4
2017-07-21T02:46:43.714Z,4
2017-07-21T02:47:59.147Z,8
2017-07-21T02:49:14.608Z,4
2017-07-21T02:50:30.185Z,8
2017-07-21T02:51:46.007Z,8
2017-07-21T02:53:01.444Z,8
2017-07-21T02:54:14.285Z,12
2017-07-21T02:55:28.448Z,12
2017-07-21T02:56:44.206Z,16
2017-07-21T02:57:59.714Z,16
2017-07-21T02:59:15.357Z,20
2017-07-21T03:00:30.812Z,24
2017-07-21T03:01:46.519Z,32
2017-07-21T03:03:01.957Z,36
2017-07-21T03:04:17.393Z,44
2017-07-21T03:05:32.806Z,48
2017-07-21T03:06:48.479Z,56
2017-07-21T03:08:03.935Z,64
2017-07-21T03:09:18.298Z,72
2017-07-21T03:10:33.760Z,76
2017-07-21T03:11:49.691Z,88
2017-07-21T03:13:05.349Z,96
2017-07-21T03:14:20.990Z,108
2017-07-21T03:15:36.457Z,116
2017-07-21T03:16:52.161Z,132
2017-07-21T03:18:06.561Z,148
2017-07-21T03:19:22.054Z,160
2017-07-21T03:20:37.542Z,180
2017-07-21T03:21:53.361Z,192
2017-07-21T03:23:08.841Z,212
2017-07-21T03:24:24.318Z,236
2017-07-21T03:25:39.778Z,264
2017-07-21T03:26:55.454Z,288
2017-07-21T03:28:10.957Z,312
2017-07-21T03:29:25.479Z,336
2017-07-21T03:30:40.959Z,360
2017-07-21T03:31:56.627Z,388
2017-07-21T03:33:10.812Z,416
2017-07-21T03:34:26.466Z,448
2017-07-21T03:35:41.942Z,476
2017-07-21T03:36:57.624Z,512
2017-07-21T03:38:13.064Z,548
2017-07-21T03:39:28.474Z,592
2017-07-21T03:40:43.946Z,632
2017-07-21T03:41:59.624Z,672
2017-07-21T03:43:13.794Z,712
2017-07-21T03:44:27.957Z,752
2017-07-21T03:45:43.400Z,792
2017-07-21T03:46:59.180Z,832
2017-07-21T03:48:13.337Z,876
2017-07-21T03:49:28.763Z,928
2017-07-21T03:50:42.994Z,972
2017-07-21T03:51:58.704Z,1016
2017-07-21T03:53:14.173Z,1056
2017-07-21T03:54:29.811Z,1100
2017-07-21T03:55:45.252Z,1152
2017-07-21T03:57:00.973Z,1212
2017-07-21T03:58:16.464Z,1280
2017-07-21T03:59:32.124Z,1344
2017-07-21T04:00:47.577Z,1416
2017-07-21T04:02:03.282Z,1480
2017-07-21T04:03:17.459Z,1532
2017-07-21T04:04:32.942Z,1556
2017-07-21T04:05:48.481Z,1552
2017-07-21T04:07:04.272Z,1560
2017-07-21T04:08:18.294Z,1588
2017-07-21T04:09:33.816Z,1620
2017-07-21T04:10:49.275Z,1660
2017-07-21T04:12:04.971Z,1700
2017-07-21T04:13:20.425Z,1736
2017-07-21T04:14:35.999Z,1776
2017-07-21T04:15:51.420Z,1816
2017-07-21T04:17:07.091Z,1856
2017-07-21T04:18:22.575Z,1896
2017-07-21T04:19:38.028Z,1936
2017-07-21T04:20:53.533Z,1980
2017-07-21T04:22:09.239Z,2020
2017-07-21T04:23:24.689Z,2068
2017-07-21T04:24:40.108Z,2124
2017-07-21T04:25:55.726Z,2176
2017-07-21T04:27:11.073Z,2232
2017-07-21T04:28:26.592Z,2284
2017-07-21T04:29:42.353Z,2340
2017-07-21T04:30:57.798Z,2400
2017-07-21T04:32:13.535Z,2464
2017-07-21T04:33:28.977Z,2520
2017-07-21T04:34:44.435Z,2568
2017-07-21T04:35:59.894Z,2600
2017-07-21T04:37:15.642Z,2648
2017-07-21T04:38:31.047Z,2696
2017-07-21T04:39:43.914Z,2736
2017-07-21T04:40:59.393Z,2776
2017-07-21T04:42:15.111Z,2808
2017-07-21T04:43:30.597Z,2848
2017-07-21T04:44:46.042Z,2892
2017-07-21T04:46:01.584Z,2948
2017-07-21T04:47:17.279Z,3000
2017-07-21T04:48:32.775Z,3068
2017-07-21T04:49:48.570Z,3112
2017-07-21T04:51:04.014Z,3152
2017-07-21T04:52:19.700Z,3200
2017-07-21T04:53:35.195Z,3220
2017-07-21T04:54:50.641Z,3308
2017-07-21T04:56:06.035Z,3404
2017-07-21T04:57:21.704Z,3472
2017-07-21T04:58:37.187Z,3592
2017-07-21T04:59:52.656Z,3652
2017-07-21T05:01:08.094Z,3752
2017-07-21T05:02:23.825Z,3916
2017-07-21T05:03:39.396Z,4100
2017-07-21T05:04:54.866Z,4276
2017-07-21T05:06:10.555Z,4376
2017-07-21T05:07:26.282Z,4100
2017-07-21T05:08:41.729Z,3976
2017-07-21T05:09:57.140Z,3880
2017-07-21T05:11:12.618Z,3824
2017-07-21T05:12:28.533Z,3848
2017-07-21T05:13:44.002Z,3768
2017-07-21T05:14:59.541Z,3784
2017-07-21T05:16:14.929Z,3868
2017-07-21T05:17:30.645Z,3948
2017-07-21T05:18:46.115Z,3728
2017-07-21T05:20:32.421Z,3692
2017-07-21T05:21:48.401Z,3864
2017-07-21T05:23:04.082Z,3992
2017-07-21T05:24:19.575Z,4196
2017-07-21T05:25:34.985Z,4288
2017-07-21T05:26:49.178Z,4356
2017-07-21T05:28:03.710Z,4392
2017-07-21T05:29:19.208Z,4440
2017-07-21T05:30:34.644Z,4556
2017-07-21T05:31:48.803Z,4628
2017-07-21T05:33:04.550Z,4700
2017-07-21T05:34:20.083Z,4752
2017-07-21T05:35:35.508Z,4844
2017-07-21T05:36:50.969Z,4864
2017-07-21T05:38:06.678Z,4956
2017-07-21T05:39:21.788Z,5080
2017-07-21T05:40:37.226Z,5080
2017-07-21T05:41:51.371Z,5060
2017-07-21T05:43:05.992Z,4976
2017-07-21T05:44:21.451Z,4984
2017-07-21T05:45:36.902Z,5148
2017-07-21T05:46:52.346Z,5496
2017-07-21T05:48:08.248Z,5600
2017-07-21T05:49:23.910Z,5716
2017-07-21T05:50:39.009Z,6316
2017-07-21T05:51:54.533Z,6376
2017-07-21T05:53:10.216Z,6556
2017-07-21T05:54:25.740Z,6920
2017-07-21T05:55:40.901Z,7424
2017-07-21T05:56:56.350Z,8120
2017-07-21T05:58:12.069Z,8480
2017-07-21T05:59:27.584Z,9104
2017-07-21T06:00:43.057Z,8988
2017-07-21T06:01:58.504Z,9164
2017-07-21T06:03:14.443Z,9164
2017-07-21T06:04:29.511Z,9176
2017-07-21T06:05:43.512Z,8600
2017-07-21T06:06:57.663Z,8100
2017-07-21T06:08:13.460Z,7788
2017-07-21T06:09:29.083Z,7884
2017-07-21T06:10:44.525Z,8228
2017-07-21T06:11:58.722Z,8552
2017-07-21T06:13:14.444Z,8672
2017-07-21T06:14:28.636Z,8868
2017-07-21T06:15:44.290Z,9220
2017-07-21T06:16:59.741Z,9448
2017-07-21T06:18:15.615Z,9480
2017-07-21T06:19:31.066Z,9500
2017-07-21T06:20:45.227Z,9564
2017-07-21T06:22:00.879Z,9328
2017-07-21T06:23:16.605Z,9316
2017-07-21T06:24:30.758Z,9504
2017-07-21T06:25:45.817Z,9516
2017-07-21T06:27:01.238Z,9452
2017-07-21T06:28:17.166Z,9896
2017-07-21T06:29:32.617Z,9924
2017-07-21T06:30:48.211Z,9908
2017-07-21T06:32:03.634Z,9588
2017-07-21T06:33:19.281Z,9280
2017-07-21T06:34:34.757Z,9184
2017-07-21T06:35:50.238Z,9740
2017-07-21T06:37:05.908Z,10120
2017-07-21T06:38:21.649Z,10276
2017-07-21T06:39:37.091Z,10012
2017-07-21T06:40:52.526Z,9828
2017-07-21T06:42:08.041Z,9752
2017-07-21T06:43:24.374Z,9644
2017-07-21T06:44:53.584Z,9912
2017-07-21T06:46:07.777Z,10064
2017-07-21T06:47:23.425Z,9772
2017-07-21T06:48:39.125Z,9376
2017-07-21T06:49:54.552Z,9332
2017-07-21T06:51:10.040Z,9872
2017-07-21T06:52:25.673Z,10172
2017-07-21T06:53:40.055Z,10496
2017-07-21T06:54:55.498Z,10876
2017-07-21T06:56:11.076Z,10944
2017-07-21T06:57:23.966Z,11044
2017-07-21T06:58:39.684Z,11404
2017-07-21T06:59:55.140Z,11624
2017-07-21T07:01:10.630Z,12028
2017-07-21T07:02:26.401Z,12420
2017-07-21T07:03:42.141Z,12568
2017-07-21T07:04:57.600Z,12656
2017-07-21T07:06:26.636Z,13124
2017-07-21T07:07:42.335Z,13000
2017-07-21T07:08:58.016Z,13232
2017-07-21T07:10:13.495Z,13364
2017-07-21T07:11:28.961Z,13508
2017-07-21T07:12:43.163Z,13600
2017-07-21T07:13:59.109Z,13768
2017-07-21T07:15:14.671Z,14076
2017-07-21T07:16:30.138Z,14128
2017-07-21T07:17:45.214Z,14288
2017-07-21T07:19:01.014Z,14640
2017-07-21T07:20:16.450Z,14836
2017-07-21T07:21:31.900Z,15216
2017-07-21T07:22:46.249Z,15552
2017-07-21T07:24:01.968Z,15268
2017-07-21T07:25:17.424Z,15040
2017-07-21T07:26:32.898Z,15276
2017-07-21T07:27:47.053Z,15552
2017-07-21T07:29:01.306Z,15584
2017-07-21T07:30:16.843Z,15840
2017-07-21T07:31:32.308Z,16608
2017-07-21T07:32:47.426Z,16960
2017-07-21T07:34:03.186Z,17504
2017-07-21T07:35:18.658Z,17728
2017-07-21T07:36:32.631Z,18016
2017-07-21T07:37:46.785Z,18304
2017-07-21T07:39:16.085Z,18464
2017-07-21T07:40:30.486Z,18912
2017-07-21T07:41:46.348Z,18048
2017-07-21T07:43:01.782Z,17504
2017-07-21T07:44:17.476Z,17472
2017-07-21T07:45:31.611Z,18304
2017-07-21T07:46:47.116Z,18432
2017-07-21T07:48:02.580Z,18496
2017-07-21T07:49:18.308Z,19488
2017-07-21T07:50:33.800Z,18272
2017-07-21T07:51:49.449Z,17792
2017-07-21T07:53:04.888Z,18752
2017-07-21T07:54:20.551Z,18944
2017-07-21T07:55:34.713Z,18560
2017-07-21T07:56:50.181Z,17280
2017-07-21T07:58:05.683Z,17632
2017-07-21T07:59:19.929Z,16544
2017-07-21T08:00:35.419Z,16228
2017-07-21T08:03:06.351Z,16076
2017-07-21T08:04:22.341Z,15276
2017-07-21T08:05:37.852Z,15828
2017-07-21T08:06:53.343Z,16124
2017-07-21T08:08:07.571Z,16308
2017-07-21T08:09:21.956Z,16016
2017-07-21T08:10:37.444Z,16440
2017-07-21T08:11:51.578Z,17152
2017-07-21T08:13:07.057Z,17440
2017-07-21T08:14:22.704Z,17120
2017-07-21T08:15:36.744Z,15212
2017-07-21T08:16:52.257Z,16236
2017-07-21T08:18:07.749Z,14852
2017-07-21T08:19:23.611Z,16668
2017-07-21T08:20:39.073Z,16684
2017-07-21T08:21:54.535Z,15504
2017-07-21T08:23:10.008Z,17248
2017-07-21T08:24:25.712Z,17472
2017-07-21T08:25:41.182Z,18112
2017-07-21T08:26:57.265Z,18912
2017-07-21T08:28:11.655Z,20128
2017-07-21T08:29:27.328Z,20928
2017-07-21T08:30:41.362Z,20544
2017-07-21T08:31:57.033Z,21632
2017-07-21T08:33:12.529Z,21280
2017-07-21T08:34:28.239Z,22528
2017-07-21T08:35:43.751Z,21856
2017-07-21T08:36:59.218Z,21440
2017-07-21T08:38:14.691Z,21792
2017-07-21T08:39:30.573Z,20832
2017-07-21T08:40:59.635Z,31168
2017-07-21T08:42:15.086Z,28256
2017-07-21T08:43:30.642Z,34208
2017-07-21T08:44:46.333Z,63008
2017-07-21T08:46:01.823Z,43744
2017-07-21T08:47:17.267Z,63040
2017-07-21T08:48:32.732Z,46720
2017-07-21T08:49:48.426Z,33920
2017-07-21T08:51:02.390Z,45248
2017-07-21T08:52:17.834Z,55360
2017-07-21T08:53:33.322Z,63776
2017-07-21T08:54:49.015Z,33440
2017-07-21T08:56:04.734Z,61824
2017-07-21T08:57:20.423Z,77152
2017-07-21T08:58:35.872Z,80800
2017-07-21T08:59:51.590Z,81152
2017-07-21T09:01:07.222Z,35008
2017-07-21T09:02:21.278Z,44192
2017-07-21T09:03:37.153Z,72768
2017-07-21T09:04:52.851Z,95232
2017-07-21T09:06:08.361Z,109792
2017-07-21T09:07:23.978Z,117088
2017-07-21T09:08:39.430Z,90688
2017-07-21T09:09:55.146Z,103520
2017-07-21T09:11:10.451Z,101568
2017-07-21T09:12:25.942Z,69984
2017-07-21T09:13:41.451Z,74432
2017-07-21T09:14:57.166Z,90656
2017-07-21T09:16:12.598Z,89248
2017-07-21T09:17:28.141Z,84576
2017-07-21T09:18:43.488Z,82304
2017-07-21T09:19:59.222Z,84384
2017-07-21T09:21:14.891Z,75168
2017-07-21T09:22:29.132Z,55712
2017-07-21T09:23:44.621Z,78656
2017-07-21T09:25:00.373Z,83904
2017-07-21T09:26:15.908Z,70848
2017-07-21T09:27:31.415Z,80896
2017-07-21T09:28:47.111Z,78048
2017-07-21T09:30:02.938Z,64736
2017-07-21T09:31:18.300Z,68384
2017-07-21T09:32:32.344Z,95200
2017-07-21T09:33:47.932Z,104864
2017-07-21T09:35:02.560Z,85024
2017-07-21T09:36:18.056Z,38368
2017-07-21T09:37:33.598Z,76384
2017-07-21T09:38:49.096Z,90144
2017-07-21T09:40:04.991Z,85376
2017-07-21T09:41:19.191Z,58400
2017-07-21T09:42:33.346Z,99456
2017-07-21T09:43:49.194Z,88992
2017-07-21T09:45:18.512Z,99936
2017-07-21T09:46:33.934Z,117280
2017-07-21T09:47:49.402Z,95520
2017-07-21T09:49:05.753Z,66720
2017-07-21T09:50:21.750Z,82400
2017-07-21T09:51:37.251Z,106080
2017-07-21T09:52:53.143Z,84448
2017-07-21T09:54:08.645Z,67648
2017-07-21T09:55:24.592Z,84832
2017-07-21T09:56:40.080Z,83680
2017-07-21T09:57:55.629Z,85728
2017-07-21T09:59:11.052Z,104800
2017-07-21T10:00:27.046Z,111552
2017-07-21T10:01:42.566Z,97088
2017-07-21T10:02:58.038Z,88992
2017-07-21T10:04:13.920Z,95040
2017-07-21T10:05:29.640Z,115616
2017-07-21T10:06:45.167Z,83648
2017-07-21T10:08:00.666Z,29376
2017-07-21T10:09:16.148Z,52064
2017-07-21T10:10:32.050Z,80384
2017-07-21T10:11:47.578Z,81280
2017-07-21T10:13:03.061Z,94176
2017-07-21T10:14:18.570Z,106080
2017-07-21T10:15:34.385Z,109472
2017-07-21T10:16:49.820Z,101344
2017-07-21T10:18:04.010Z,103424
2017-07-21T10:19:19.476Z,108928
2017-07-21T10:20:35.181Z,103936
2017-07-21T10:21:50.680Z,112096
2017-07-21T10:23:06.550Z,139168
2017-07-21T10:24:22.059Z,121952
2017-07-21T10:25:37.742Z,27296
2017-07-21T10:26:53.219Z,103712
2017-07-21T10:28:08.889Z,22240
2017-07-21T10:29:24.411Z,19200
2017-07-21T10:30:39.809Z,20352
2017-07-21T10:31:55.306Z,25632
2017-07-21T10:33:10.844Z,21440
2017-07-21T10:34:26.289Z,21088
2017-07-21T10:35:40.782Z,22752
2017-07-21T10:36:56.291Z,86400
2017-07-21T10:38:10.688Z,103296
2017-07-21T10:39:26.253Z,99072
2017-07-21T10:40:42.244Z,129504
2017-07-21T10:41:57.872Z,122784
2017-07-21T10:43:13.366Z,89888
2017-07-21T10:44:29.076Z,88640
2017-07-21T10:45:44.820Z,107936
2017-07-21T10:47:00.293Z,121472
2017-07-21T10:48:15.973Z,119360
2017-07-21T10:49:31.482Z,31104
2017-07-21T10:50:47.160Z,21216
2017-07-21T10:52:02.667Z,21120
2017-07-21T10:53:18.154Z,23456
2017-07-21T10:54:33.640Z,31072
2017-07-21T10:55:49.364Z,144160
2017-07-21T10:57:03.531Z,86272
2017-07-21T10:58:19.079Z,21408
2017-07-21T10:59:34.752Z,16544
2017-07-21T11:00:48.975Z,15716
2017-07-21T11:02:04.351Z,17568
2017-07-21T11:03:19.908Z,133472
2017-07-21T11:04:35.418Z,110048
2017-07-21T11:05:50.946Z,97696
2017-07-21T11:07:06.733Z,29152
2017-07-21T11:08:22.248Z,32416
2017-07-21T11:10:08.568Z,116480
2017-07-21T11:11:24.274Z,107936
2017-07-21T11:12:39.733Z,55296
2017-07-21T11:13:53.908Z,107360
2017-07-21T11:15:09.369Z,118080
2017-07-21T11:16:25.159Z,123552
2017-07-21T11:17:40.686Z,121344
2017-07-21T11:18:56.204Z,113120
2017-07-21T11:20:12.093Z,43008
2017-07-21T11:21:27.486Z,131264
2017-07-21T11:22:42.979Z,22976
2017-07-21T11:23:58.603Z,19808
2017-07-21T11:25:14.285Z,20288
2017-07-21T11:26:30.038Z,21376
2017-07-21T11:27:45.529Z,27936
2017-07-21T11:29:01.033Z,124128
2017-07-21T11:30:15.066Z,29024
2017-07-21T11:31:30.828Z,25312
2017-07-21T11:32:46.315Z,36000
2017-07-21T11:34:01.921Z,24352
2017-07-21T11:35:17.482Z,26016
2017-07-21T11:36:33.232Z,29664
2017-07-21T11:37:48.729Z,31936
2017-07-21T11:39:04.188Z,30336
2017-07-21T11:40:19.692Z,29280
2017-07-21T11:41:35.451Z,31552
2017-07-21T11:42:50.940Z,78784
2017-07-21T11:44:06.416Z,40608
2017-07-21T11:45:21.880Z,32512
2017-07-21T11:46:37.660Z,29824
2017-07-21T11:47:53.094Z,32512
2017-07-21T11:49:39.423Z,49920
2017-07-21T11:50:54.964Z,35648
2017-07-21T11:52:10.797Z,92448
2017-07-21T11:53:26.424Z,103808
2017-07-21T11:54:39.330Z,37504
2017-07-21T11:55:54.805Z,26240
2017-07-21T11:57:10.596Z,34080
2017-07-21T11:58:39.654Z,64672
2017-07-21T11:59:55.140Z,29536
2017-07-21T12:01:09.333Z,26176
2017-07-21T12:02:25.063Z,30624
2017-07-21T12:03:40.593Z,35488
2017-07-21T12:04:56.051Z,23520
2017-07-21T12:06:10.192Z,22176
2017-07-21T12:07:25.903Z,20032
2017-07-21T12:08:41.355Z,18848
2017-07-21T12:10:10.337Z,18400
2017-07-21T12:11:25.781Z,18912
2017-07-21T12:12:40.258Z,22240
2017-07-21T12:13:55.775Z,24704
2017-07-21T12:15:11.288Z,24512
2017-07-21T12:16:25.460Z,53632
2017-07-21T12:17:41.284Z,22624
2017-07-21T12:18:56.365Z,20800
2017-07-21T12:20:11.799Z,19616
2017-07-21T12:21:27.241Z,23296
2017-07-21T12:22:42.993Z,24544
2017-07-21T12:23:58.499Z,27264
2017-07-21T12:25:14.108Z,26976
2017-07-21T12:26:29.581Z,26048
2017-07-21T12:27:45.349Z,42784
2017-07-21T12:29:00.871Z,23296
2017-07-21T12:30:16.359Z,24704
2017-07-21T12:31:31.828Z,25824
2017-07-21T12:32:47.717Z,21632
2017-07-21T12:34:03.222Z,20736
2017-07-21T12:35:18.729Z,28224
2017-07-21T12:36:34.356Z,26144
2017-07-21T12:37:50.359Z,25728
2017-07-21T12:39:05.912Z,27712
2017-07-21T12:40:21.046Z,62496
2017-07-21T12:41:36.511Z,52320
2017-07-21T12:42:52.304Z,123264
2017-07-21T12:44:07.984Z,103904
2017-07-21T12:45:23.087Z,81440
2017-07-21T12:46:37.226Z,91776
2017-07-21T12:47:52.897Z,44480
2017-07-21T12:49:08.423Z,52224
2017-07-21T12:50:23.934Z,105568
2017-07-21T12:51:39.447Z,37344
2017-07-21T12:52:55.153Z,138176
2017-07-21T12:54:10.628Z,125184
2017-07-21T12:55:26.201Z,79232
2017-07-21T12:56:41.682Z,63040
2017-07-21T12:57:57.595Z,73344
2017-07-21T12:59:13.434Z,91808
2017-07-21T13:00:28.890Z,103840
2017-07-21T13:01:44.401Z,33984
2017-07-21T13:03:00.118Z,33824
2017-07-21T13:04:15.614Z,30208
2017-07-21T13:05:31.099Z,30528
2017-07-21T13:06:46.832Z,85504
2017-07-21T13:08:02.593Z,126880
2017-07-21T13:09:18.281Z,104480
2017-07-21T13:10:33.729Z,47296
2017-07-21T13:11:48.101Z,64064
2017-07-21T13:13:03.845Z,99200
2017-07-21T13:14:19.398Z,114912
2017-07-21T13:15:34.920Z,92320
2017-07-21T13:16:50.391Z,82240
2017-07-21T13:18:06.158Z,91328
2017-07-21T13:19:21.615Z,96992
2017-07-21T13:21:52.468Z,92896
2017-07-21T13:23:07.130Z,76736
2017-07-21T13:24:22.665Z,45024
2017-07-21T13:25:38.153Z,58208
2017-07-21T13:26:53.309Z,83072
2017-07-21T13:28:09.266Z,86944
2017-07-21T13:29:23.443Z,90464
2017-07-21T13:30:38.903Z,86720
2017-07-21T13:31:54.395Z,72096
2017-07-21T13:33:10.146Z,57408
2017-07-21T13:34:24.267Z,63680
2017-07-21T13:35:39.709Z,92512
2017-07-21T13:36:54.899Z,116640
2017-07-21T13:38:10.855Z,118848
2017-07-21T13:39:26.363Z,97152
2017-07-21T13:40:40.909Z,70048
2017-07-21T13:41:56.443Z,67200
2017-07-21T13:43:12.205Z,101696
2017-07-21T13:44:27.732Z,91808
2017-07-21T13:45:43.241Z,51648
2017-07-21T13:46:58.931Z,45120
2017-07-21T13:48:13.445Z,77440
2017-07-21T13:49:29.100Z,99584
2017-07-21T13:50:43.317Z,101408
2017-07-21T13:51:58.813Z,87072
2017-07-21T13:53:14.520Z,66048
2017-07-21T13:54:30.017Z,77600
2017-07-21T13:55:45.600Z,103072
2017-07-21T13:57:01.052Z,87520
2017-07-21T13:58:16.791Z,57696
2017-07-21T13:59:32.321Z,72416
2017-07-21T14:00:48.063Z,102976
2017-07-21T14:02:03.760Z,103488
2017-07-21T14:03:19.499Z,84992
2017-07-21T14:04:35.040Z,75200
2017-07-21T14:05:50.551Z,77472
2017-07-21T14:07:06.216Z,86368
2017-07-21T14:08:21.974Z,85824
2017-07-21T14:09:37.484Z,67712
2017-07-21T14:10:52.967Z,62464
2017-07-21T14:12:08.477Z,81216
2017-07-21T14:13:24.216Z,89856
2017-07-21T14:14:39.724Z,72736
2017-07-21T14:15:54.094Z,68928
2017-07-21T14:17:09.252Z,97568
2017-07-21T14:18:25.134Z,115648
2017-07-21T14:19:40.718Z,98240
2017-07-21T14:20:56.342Z,77984
2017-07-21T14:22:11.859Z,75776
2017-07-21T14:23:27.565Z,69280
2017-07-21T14:24:43.099Z,61152
2017-07-21T14:25:58.557Z,65280
2017-07-21T14:27:14.135Z,74432
2017-07-21T14:28:29.927Z,68192
2017-07-21T14:29:44.004Z,56512
2017-07-21T14:30:59.527Z,57280
2017-07-21T14:32:15.181Z,73056
2017-07-21T14:33:30.922Z,82848
2017-07-21T14:34:45.146Z,65376
2017-07-21T14:36:00.594Z,16448
2017-07-21T14:37:16.122Z,13284
2017-07-21T14:38:31.847Z,13316
2017-07-21T14:39:47.724Z,14532
2017-07-21T14:41:03.212Z,19616
2017-07-21T14:42:18.861Z,83264
2017-07-21T14:43:34.654Z,50624
2017-07-21T14:44:49.034Z,40448
2017-07-21T14:46:04.416Z,34144
2017-07-21T14:47:19.900Z,23904
2017-07-21T14:48:35.640Z,53728
2017-07-21T14:49:51.407Z,37920
2017-07-21T14:51:06.902Z,59712
2017-07-21T14:52:22.051Z,68640
2017-07-21T14:53:37.752Z,69472
2017-07-21T14:54:53.253Z,69056
2017-07-21T14:56:08.730Z,29632
2017-07-21T14:57:24.224Z,44640
2017-07-21T14:58:40.060Z,24544
2017-07-21T14:59:55.553Z,48896
2017-07-21T15:01:11.101Z,28416
2017-07-21T15:02:26.773Z,30784
2017-07-21T15:03:41.275Z,11168
2017-07-21T15:04:56.975Z,11136
2017-07-21T15:06:12.699Z,10792
2017-07-21T15:07:28.177Z,9940
2017-07-21T15:08:43.896Z,10356
2017-07-21T15:09:59.435Z,12248
2017-07-21T15:11:13.607Z,19232
2017-07-21T15:12:27.770Z,54400
2017-07-21T15:13:43.730Z,49824
2017-07-21T15:14:59.282Z,10856
2017-07-21T15:16:13.294Z,11244
2017-07-21T15:17:28.802Z,26592
2017-07-21T15:18:44.520Z,16608
2017-07-21T15:20:00.028Z,15400
2017-07-21T15:21:15.762Z,15020
2017-07-21T15:22:31.354Z,14516
2017-07-21T15:23:47.099Z,14264
2017-07-21T15:25:02.541Z,12156
2017-07-21T15:26:18.082Z,11312
2017-07-21T15:27:33.571Z,11784
2017-07-21T15:28:49.240Z,12404
2017-07-21T15:30:04.769Z,13848
2017-07-21T15:31:20.521Z,13616
2017-07-21T15:32:36.363Z,13056
2017-07-21T15:33:52.108Z,12172
2017-07-21T15:35:07.559Z,12192
2017-07-21T15:36:23.077Z,9380
2017-07-21T15:37:38.593Z,8932
2017-07-21T15:38:53.060Z,8712
2017-07-21T15:40:08.477Z,8588
2017-07-21T15:41:24.096Z,8612
2017-07-21T15:42:39.550Z,8908
2017-07-21T15:43:55.255Z,10396
2017-07-21T15:45:10.793Z,8964
2017-07-21T15:46:24.983Z,10452
2017-07-21T15:47:40.553Z,9248
2017-07-21T15:48:56.294Z,9448
2017-07-21T15:50:11.825Z,10300
2017-07-21T15:51:27.351Z,9460
2017-07-21T15:52:42.789Z,9860
2017-07-21T15:53:58.576Z,9928
2017-07-21T15:55:14.185Z,9936
2017-07-21T15:56:29.778Z,9956
2017-07-21T15:57:45.231Z,9912
2017-07-21T15:59:00.971Z,9824
2017-07-21T16:00:16.468Z,9756
2017-07-21T16:01:31.947Z,9688
2017-07-21T16:02:47.694Z,9576
2017-07-21T16:04:03.402Z,9508
2017-07-21T16:05:18.887Z,9468
2017-07-21T16:06:34.369Z,9396
2017-07-21T16:07:49.884Z,9316
2017-07-21T16:09:05.609Z,9176
2017-07-21T16:10:21.094Z,8988
2017-07-21T16:11:36.662Z,8856
2017-07-21T16:12:52.182Z,8732
2017-07-21T16:14:07.951Z,8648
2017-07-21T16:15:23.451Z,8632
2017-07-21T16:16:38.580Z,8680
2017-07-21T16:17:54.065Z,8624
2017-07-21T16:19:09.730Z,8532
2017-07-21T16:20:25.265Z,8516
2017-07-21T16:21:40.770Z,8524
2017-07-21T16:22:56.259Z,8520
2017-07-21T16:24:12.222Z,8552
2017-07-21T16:25:27.740Z,8524
2017-07-21T16:26:43.251Z,8592
2017-07-21T16:27:58.889Z,8824
2017-07-21T16:29:14.650Z,8920
2017-07-21T16:30:30.115Z,8860
2017-07-21T16:31:45.644Z,8608
2017-07-21T16:33:01.174Z,8376
2017-07-21T16:34:16.929Z,8276
2017-07-21T16:35:32.537Z,8308
2017-07-21T16:36:46.784Z,8336
2017-07-21T16:38:02.260Z,8540
2017-07-21T16:39:18.195Z,8756
2017-07-21T16:40:33.681Z,8852
2017-07-21T16:41:49.264Z,8804
2017-07-21T16:43:04.888Z,8624
2017-07-21T16:44:20.655Z,8596
2017-07-21T16:45:36.242Z,8216
2017-07-21T16:46:51.733Z,7588
2017-07-21T16:48:07.216Z,6904
2017-07-21T16:49:22.939Z,6476